createdAt,value
2019-03-21T00:01:32.107Z,101965.03
2019-03-21T00:04:34.149Z,101959.60
2019-03-21T00:07:36.062Z,101937.15
2019-03-21T00:10:41.612Z,101943.88
2019-03-21T00:13:44.692Z,101944.49
2019-03-21T00:16:46.581Z,101941.23
2019-03-21T00:19:48.495Z,101943.41
2019-03-21T00:22:50.379Z,101944.72
2019-03-21T00:25:52.275Z,101949.41
2019-03-21T00:28:54.173Z,101940.52
2019-03-21T00:31:56.219Z,101941.50
2019-03-21T00:34:58.148Z,101942.69
2019-03-21T00:38:01.183Z,101934.68
2019-03-21T00:41:03.595Z,101934.45
2019-03-21T00:44:05.536Z,101929.33
2019-03-21T00:47:07.536Z,101931.36
2019-03-21T00:50:22.091Z,101936.94
2019-03-21T00:53:24.151Z,101927.89
2019-03-21T00:56:26.085Z,101923.30
2019-03-21T00:59:27.978Z,101918.55
2019-03-21T01:02:29.972Z,101915.72
2019-03-21T01:05:31.807Z,101914.16
2019-03-21T01:08:33.761Z,101911.50
2019-03-21T01:11:35.742Z,101907.30
2019-03-21T01:14:37.637Z,101905.48
2019-03-21T01:17:39.534Z,101900.14
2019-03-21T01:20:41.442Z,101907.67
2019-03-21T01:23:44.630Z,101907.36
2019-03-21T01:26:46.839Z,101900.42
2019-03-21T01:29:48.876Z,101904.14
2019-03-21T01:32:50.863Z,101901.26
2019-03-21T01:35:52.778Z,101902.24
2019-03-21T01:38:54.773Z,101908.80
2019-03-21T01:41:57.238Z,101902.16
2019-03-21T01:44:59.107Z,101896.41
2019-03-21T01:48:01.035Z,101904.04
2019-03-21T01:51:02.960Z,101908.58
2019-03-21T01:54:04.855Z,101909.24
2019-03-21T01:57:06.819Z,101912.59
2019-03-21T02:00:12.302Z,101908.50
2019-03-21T02:03:14.259Z,101914.59
2019-03-21T02:06:16.158Z,101913.03
2019-03-21T02:09:18.121Z,101914.24
2019-03-21T02:12:21.282Z,101912.59
2019-03-21T02:15:25.009Z,101909.27
2019-03-21T02:18:26.995Z,101908.64
2019-03-21T02:21:28.918Z,101904.87
2019-03-21T02:24:30.774Z,101901.78
2019-03-21T02:27:32.644Z,101895.28
2019-03-21T02:30:42.334Z,101892.86
2019-03-21T02:33:44.257Z,101892.80
2019-03-21T02:36:46.398Z,101895.36
2019-03-21T02:39:58.920Z,101894.25
2019-03-21T02:42:52.360Z,101894.78
2019-03-21T02:45:54.197Z,101891.27
2019-03-21T02:48:56.023Z,101887.57
2019-03-21T02:51:57.947Z,101893.42
2019-03-21T02:54:59.905Z,101880.23
2019-03-21T02:58:01.848Z,101883.99
2019-03-21T03:01:03.779Z,101877.77
2019-03-21T03:04:05.679Z,101884.84
2019-03-21T03:07:07.533Z,101880.89
2019-03-21T03:10:13.060Z,101877.02
2019-03-21T03:13:14.928Z,101876.56
2019-03-21T03:16:17.302Z,101876.69
2019-03-21T03:19:19.342Z,101878.19
2019-03-21T03:22:21.254Z,101882.92
2019-03-21T03:25:23.090Z,101890.70
2019-03-21T03:28:30.554Z,101883.94
2019-03-21T03:31:32.530Z,101883.23
2019-03-21T03:34:34.464Z,101886.35
2019-03-21T03:37:36.354Z,101884.28
2019-03-21T03:41:00.222Z,101887.01
2019-03-21T03:44:02.184Z,101878.77
2019-03-21T03:47:04.100Z,101879.20
2019-03-21T03:50:09.270Z,101881.27
2019-03-21T03:53:11.167Z,101889.13
2019-03-21T03:56:13.106Z,101897.78
2019-03-21T03:59:15.045Z,101893.70
2019-03-21T04:02:16.971Z,101896.15
2019-03-21T04:05:19.498Z,101892.31
2019-03-21T04:08:21.425Z,101890.16
2019-03-21T04:11:23.301Z,101889.89
2019-03-21T04:14:25.184Z,101888.43
2019-03-21T04:17:27.147Z,101884.28
2019-03-21T04:20:35.795Z,101886.20
2019-03-21T04:23:37.750Z,101886.77
2019-03-21T04:26:39.715Z,101880.02
2019-03-21T04:29:41.698Z,101884.00
2019-03-21T04:32:44.154Z,101880.87
2019-03-21T04:35:46.469Z,101890.97
2019-03-21T04:38:49.751Z,101888.67
2019-03-21T04:41:51.739Z,101896.69
2019-03-21T04:44:53.742Z,101886.19
2019-03-21T04:47:55.590Z,101891.81
2019-03-21T04:50:57.479Z,101887.73
2019-03-21T04:53:59.355Z,101892.36
2019-03-21T04:57:01.293Z,101891.00
2019-03-21T05:00:09.805Z,101900.75
2019-03-21T05:03:21.477Z,101893.86
2019-03-21T05:06:23.351Z,101904.67
2019-03-21T05:09:25.263Z,101905.34
2019-03-21T05:12:27.107Z,101901.75
2019-03-21T05:15:35.200Z,101890.22
2019-03-21T05:18:46.757Z,101890.77
2019-03-21T05:21:48.754Z,101889.29
2019-03-21T05:24:50.661Z,101901.99
2019-03-21T05:27:52.663Z,101900.55
2019-03-21T05:31:09.943Z,101907.19
2019-03-21T05:34:11.923Z,101905.64
2019-03-21T05:37:13.858Z,101906.28
2019-03-21T05:40:18.295Z,101908.81
2019-03-21T05:43:36.013Z,101904.81
2019-03-21T05:46:37.948Z,101903.78
2019-03-21T05:49:39.834Z,101909.86
2019-03-21T05:52:41.843Z,101909.23
2019-03-21T05:55:44.037Z,101917.41
2019-03-21T05:58:46.163Z,101918.89
2019-03-21T06:01:48.152Z,101918.01
2019-03-21T06:04:50.114Z,101927.77
2019-03-21T06:08:07.400Z,101920.34
2019-03-21T06:11:09.641Z,101924.36
2019-03-21T06:14:11.541Z,101927.30
2019-03-21T06:17:13.490Z,101936.39
2019-03-21T06:20:30.967Z,101938.02
2019-03-21T06:23:48.363Z,101940.36
2019-03-21T06:26:53.926Z,101948.85
2019-03-21T06:29:55.868Z,101954.28
2019-03-21T06:32:57.853Z,101957.53
2019-03-21T06:36:00.054Z,101953.89
2019-03-21T06:39:01.932Z,101957.20
2019-03-21T06:42:06.336Z,101965.27
2019-03-21T06:45:08.508Z,101964.47
2019-03-21T06:48:10.440Z,101966.25
2019-03-21T06:51:12.490Z,101965.34
2019-03-21T06:54:14.440Z,101963.91
2019-03-21T06:57:16.432Z,101963.01
2019-03-21T07:00:18.305Z,101964.25
2019-03-21T07:03:20.254Z,101969.42
2019-03-21T07:06:22.146Z,101967.00
2019-03-21T07:09:24.111Z,101967.17
2019-03-21T07:12:26.009Z,101962.77
2019-03-21T07:15:28.007Z,101969.30
2019-03-21T07:18:29.874Z,101977.70
2019-03-21T07:21:31.878Z,101975.89
2019-03-21T07:24:34.835Z,101984.58
2019-03-21T07:27:36.714Z,101980.15
2019-03-21T07:30:38.610Z,101981.06
2019-03-21T07:33:40.543Z,101975.58
2019-03-21T07:36:42.417Z,101985.05
2019-03-21T07:39:44.295Z,101980.37
2019-03-21T07:42:46.299Z,101986.70
2019-03-21T07:45:48.354Z,101981.46
2019-03-21T07:48:50.282Z,101988.15
2019-03-21T07:51:52.232Z,101992.99
2019-03-21T07:54:54.148Z,101990.14
2019-03-21T07:57:56.141Z,101995.59
2019-03-21T08:00:58.068Z,102001.50
2019-03-21T08:04:02.755Z,102001.31
2019-03-21T08:07:03.897Z,101999.84
2019-03-21T08:10:09.220Z,101995.70
2019-03-21T08:13:11.179Z,101998.61
2019-03-21T08:16:13.064Z,101998.38
2019-03-21T08:19:14.970Z,101998.88
2019-03-21T08:22:16.810Z,101995.47
2019-03-21T08:25:18.741Z,101995.07
2019-03-21T08:28:20.741Z,101995.53
2019-03-21T08:31:22.668Z,102000.61
2019-03-21T08:34:24.700Z,102004.58
2019-03-21T08:37:26.752Z,102002.36
2019-03-21T08:40:28.830Z,102004.20
2019-03-21T08:43:30.880Z,101999.31
2019-03-21T08:46:32.939Z,102011.39
2019-03-21T08:49:34.858Z,102009.63
2019-03-21T08:52:36.826Z,102013.22
2019-03-21T08:55:38.737Z,102011.21
2019-03-21T08:58:40.686Z,102013.08
2019-03-21T09:01:42.569Z,102017.28
2019-03-21T09:04:44.550Z,102014.23
2019-03-21T09:07:46.567Z,102012.36
2019-03-21T09:10:48.636Z,102012.73
2019-03-21T09:13:50.602Z,102016.19
2019-03-21T09:16:52.544Z,102015.78
2019-03-21T09:19:54.468Z,102015.85
2019-03-21T09:22:57.495Z,102022.28
2019-03-21T09:25:59.376Z,102022.47
2019-03-21T09:29:01.304Z,102026.83
2019-03-21T09:32:03.166Z,102028.27
2019-03-21T09:35:06.220Z,102022.28
2019-03-21T09:38:08.111Z,102025.45
2019-03-21T09:41:10.060Z,102024.62
2019-03-21T09:44:12.423Z,102020.76
2019-03-21T09:47:14.394Z,102020.84
2019-03-21T09:50:28.029Z,102020.90
2019-03-21T09:53:29.962Z,102020.34
2019-03-21T09:56:31.873Z,102027.52
2019-03-21T09:59:33.736Z,102028.12
2019-03-21T10:02:35.602Z,102028.48
2019-03-21T10:05:37.554Z,102024.50
2019-03-21T10:08:39.491Z,102025.61
2019-03-21T10:11:41.424Z,102029.80
2019-03-21T10:14:43.851Z,102023.88
2019-03-21T10:17:45.742Z,102029.66
2019-03-21T10:20:47.716Z,102028.27
2019-03-21T10:23:49.623Z,102025.94
2019-03-21T10:26:51.493Z,102022.66
2019-03-21T10:29:53.423Z,102028.70
2019-03-21T10:32:55.328Z,102025.03
2019-03-21T10:35:57.282Z,102032.70
2019-03-21T10:38:59.162Z,102031.22
2019-03-21T10:42:01.069Z,102032.47
2019-03-21T10:45:05.764Z,102028.17
2019-03-21T10:48:08.766Z,102029.22
2019-03-21T10:51:10.711Z,102035.48
2019-03-21T10:54:12.701Z,102034.01
2019-03-21T10:57:14.627Z,102029.92
2019-03-21T11:00:16.795Z,102024.48
2019-03-21T11:03:18.757Z,102021.86
2019-03-21T11:06:21.776Z,102021.91
2019-03-21T11:09:23.788Z,102019.73
2019-03-21T11:12:25.700Z,102013.08
2019-03-21T11:15:27.619Z,102012.25
2019-03-21T11:18:36.000Z,102012.52
2019-03-21T11:21:33.463Z,102006.66
2019-03-21T11:24:35.742Z,101996.76
2019-03-21T11:27:37.685Z,101997.34
2019-03-21T11:30:41.015Z,101993.79
2019-03-21T11:33:42.949Z,101983.74
2019-03-21T11:36:44.997Z,101981.28
2019-03-21T11:39:46.939Z,101982.70
2019-03-21T11:42:48.913Z,101969.09
2019-03-21T11:45:51.307Z,101973.58
2019-03-21T11:48:53.347Z,101962.21
2019-03-21T11:51:55.231Z,101960.00
2019-03-21T11:54:57.192Z,101959.20
2019-03-21T11:57:59.108Z,101952.00
2019-03-21T12:01:00.991Z,101952.83
2019-03-21T12:04:03.075Z,101947.86
2019-03-21T12:07:05.181Z,101938.18
2019-03-21T12:10:10.013Z,101936.75
2019-03-21T12:13:11.972Z,101932.66
2019-03-21T12:16:13.896Z,101932.04
2019-03-21T12:19:15.822Z,101926.50
2019-03-21T12:22:29.163Z,101928.72
2019-03-21T12:25:21.557Z,101930.66
2019-03-21T12:28:23.478Z,101926.49
2019-03-21T12:31:25.802Z,101925.98
2019-03-21T12:34:27.791Z,101922.64
2019-03-21T12:37:29.859Z,101920.99
2019-03-21T12:40:32.019Z,101920.70
2019-03-21T12:43:33.885Z,101917.87
2019-03-21T12:46:35.767Z,101915.70
2019-03-21T12:49:37.736Z,101903.82
2019-03-21T12:53:37.217Z,101909.92
2019-03-21T12:55:43.465Z,101903.25
2019-03-21T12:58:45.759Z,101901.05
2019-03-21T13:01:47.657Z,101894.94
2019-03-21T13:04:49.587Z,101890.80
2019-03-21T13:07:51.509Z,101886.67
2019-03-21T13:10:53.466Z,101886.67
2019-03-21T13:13:55.451Z,101874.73
2019-03-21T13:16:57.335Z,101879.19
2019-03-21T13:19:59.329Z,101876.11
2019-03-21T13:23:01.273Z,101870.56
2019-03-21T13:26:03.222Z,101863.09
2019-03-21T13:29:05.141Z,101870.03
2019-03-21T13:32:07.189Z,101870.58
2019-03-21T13:35:09.377Z,101857.81
2019-03-21T13:38:11.417Z,101857.52
2019-03-21T13:41:13.378Z,101860.85
2019-03-21T13:44:16.003Z,101851.67
2019-03-21T13:47:17.914Z,101848.36
2019-03-21T13:50:19.950Z,101844.47
2019-03-21T13:53:22.010Z,101836.70
2019-03-21T13:56:24.020Z,101837.27
2019-03-21T13:59:27.137Z,101836.44
2019-03-21T14:02:29.181Z,101834.76
2019-03-21T14:05:31.079Z,101827.81
2019-03-21T14:08:33.079Z,101827.81
2019-03-21T14:11:36.121Z,101822.30
2019-03-21T14:14:38.050Z,101824.81
2019-03-21T14:17:40.003Z,101815.63
2019-03-21T14:20:41.942Z,101815.36
2019-03-21T14:23:43.929Z,101814.53
2019-03-21T14:26:45.918Z,101814.80
2019-03-21T14:29:47.780Z,101813.67
2019-03-21T14:32:49.715Z,101803.13
2019-03-21T14:35:51.736Z,101803.95
2019-03-21T14:38:53.706Z,101803.69
2019-03-21T14:41:55.625Z,101796.19
2019-03-21T14:44:57.581Z,101800.66
2019-03-21T14:47:59.482Z,101791.20
2019-03-21T14:51:01.490Z,101788.45
2019-03-21T14:54:03.379Z,101788.16
2019-03-21T14:57:05.298Z,101788.14
2019-03-21T15:00:13.845Z,101791.19
2019-03-21T15:03:15.800Z,101785.94
2019-03-21T15:06:17.708Z,101783.73
2019-03-21T15:09:19.718Z,101777.07
2019-03-21T15:12:21.615Z,101774.27
2019-03-21T15:15:23.624Z,101773.73
2019-03-21T15:18:25.588Z,101777.33
2019-03-21T15:21:27.489Z,101772.05
2019-03-21T15:24:29.443Z,101778.42
2019-03-21T15:27:31.412Z,101780.61
2019-03-21T15:30:33.366Z,101779.76
2019-03-21T15:33:35.340Z,101776.71
2019-03-21T15:36:38.474Z,101779.73
2019-03-21T15:39:41.303Z,101785.50
2019-03-21T15:42:43.181Z,101774.94
2019-03-21T15:45:45.082Z,101772.66
2019-03-21T15:48:46.971Z,101768.52
2019-03-21T15:51:49.030Z,101771.59
2019-03-21T15:54:51.029Z,101774.59
2019-03-21T15:57:52.999Z,101770.97
2019-03-21T16:00:54.894Z,101775.67
2019-03-21T16:03:57.453Z,101778.63
2019-03-21T16:06:59.561Z,101776.37
2019-03-21T16:10:01.742Z,101781.55
2019-03-21T16:13:04.068Z,101776.79
2019-03-21T16:16:06.201Z,101782.86
2019-03-21T16:19:08.598Z,101776.75
2019-03-21T16:22:10.477Z,101778.31
2019-03-21T16:25:12.377Z,101779.85
2019-03-21T16:28:14.706Z,101777.05
2019-03-21T16:31:16.724Z,101776.42
2019-03-21T16:34:18.640Z,101775.27
2019-03-21T16:37:20.543Z,101773.81
2019-03-21T16:40:22.606Z,101772.32
2019-03-21T16:43:24.565Z,101772.83
2019-03-21T16:46:27.433Z,101774.67
2019-03-21T16:49:29.375Z,101773.17
2019-03-21T16:52:31.351Z,101776.98
2019-03-21T16:55:33.367Z,101772.16
2019-03-21T16:58:35.553Z,101768.69
2019-03-21T17:01:37.693Z,101771.34
2019-03-21T17:04:39.994Z,101766.44
2019-03-21T17:07:41.912Z,101775.34
2019-03-21T17:10:43.942Z,101778.26
2019-03-21T17:13:45.973Z,101773.68
2019-03-21T17:16:48.633Z,101776.59
2019-03-21T17:19:50.537Z,101782.53
2019-03-21T17:22:52.552Z,101780.70
2019-03-21T17:25:54.519Z,101782.77
2019-03-21T17:28:58.144Z,101779.84
2019-03-21T17:32:00.076Z,101781.94
2019-03-21T17:35:02.750Z,101776.42
2019-03-21T17:38:04.622Z,101776.63
2019-03-21T17:41:06.636Z,101792.06
2019-03-21T17:44:10.300Z,101789.22
2019-03-21T17:47:12.229Z,101791.54
2019-03-21T17:50:15.572Z,101794.70
2019-03-21T17:53:17.654Z,101799.55
2019-03-21T17:56:19.635Z,101801.09
2019-03-21T17:59:21.549Z,101798.48
2019-03-21T18:02:23.503Z,101796.34
2019-03-21T18:05:27.276Z,101796.34
2019-03-21T18:08:29.462Z,101795.45
2019-03-21T18:11:34.793Z,101793.56
2019-03-21T18:14:37.054Z,101799.55
2019-03-21T18:17:39.061Z,101800.56
2019-03-21T18:20:41.395Z,101807.21
2019-03-21T18:23:43.351Z,101803.86
2019-03-21T18:26:45.596Z,101807.27
2019-03-21T18:29:47.509Z,101811.71
2019-03-21T18:32:53.361Z,101815.72
2019-03-21T18:35:55.299Z,101819.33
2019-03-21T18:38:59.966Z,101823.05
2019-03-21T18:42:03.812Z,101823.05
2019-03-21T18:45:11.625Z,101820.55
2019-03-21T18:48:13.535Z,101819.10
2019-03-21T18:51:16.668Z,101821.88
2019-03-21T18:54:18.815Z,101820.34
2019-03-21T18:57:20.765Z,101814.70
2019-03-21T19:00:23.777Z,101817.62
2019-03-21T19:03:25.967Z,101821.04
2019-03-21T19:06:28.483Z,101818.30
2019-03-21T19:09:30.435Z,101816.33
2019-03-21T19:12:37.787Z,101823.56
2019-03-21T19:15:41.179Z,101824.89
2019-03-21T19:18:43.223Z,101828.09
2019-03-21T19:21:45.660Z,101828.09
2019-03-21T19:24:47.659Z,101826.13
2019-03-21T19:27:49.824Z,101824.27
2019-03-21T19:30:51.724Z,101821.06
2019-03-21T19:33:54.771Z,101822.72
2019-03-21T19:36:59.649Z,101823.95
2019-03-21T19:40:04.148Z,101821.57
2019-03-21T19:43:06.350Z,101827.33
2019-03-21T19:46:08.343Z,101819.56
2019-03-21T19:49:10.675Z,101820.93
2019-03-21T19:52:15.872Z,101807.14
2019-03-21T19:55:30.337Z,101814.11
2019-03-21T19:58:24.393Z,101805.59
2019-03-21T20:01:27.634Z,101809.65
2019-03-21T20:04:29.572Z,101819.98
2019-03-21T20:07:33.600Z,101822.63
2019-03-21T20:10:35.988Z,101827.15
2019-03-21T20:13:39.191Z,101825.74
2019-03-21T20:16:41.132Z,101819.41
2019-03-21T20:19:43.403Z,101818.95
2019-03-21T20:22:45.562Z,101823.06
2019-03-21T20:25:49.175Z,101818.36
2019-03-21T20:28:51.091Z,101817.73
2019-03-21T20:31:53.690Z,101819.16
2019-03-21T20:34:57.515Z,101821.70
2019-03-21T20:38:03.438Z,101818.58
2019-03-21T20:41:05.657Z,101826.79
2019-03-21T20:44:15.056Z,101826.70
2019-03-21T20:47:12.044Z,101820.94
2019-03-21T20:50:14.232Z,101827.29
2019-03-21T20:53:16.138Z,101822.99
2019-03-21T20:56:18.407Z,101815.96
2019-03-21T20:59:20.302Z,101814.09
2019-03-21T21:02:22.211Z,101816.20
2019-03-21T21:05:24.406Z,101816.48
2019-03-21T21:08:27.321Z,101821.22
2019-03-21T21:11:29.339Z,101821.86
2019-03-21T21:14:31.239Z,101827.66
2019-03-21T21:17:34.352Z,101822.63
2019-03-21T21:20:36.261Z,101819.35
2019-03-21T21:23:40.119Z,101820.66
2019-03-21T21:26:43.426Z,101823.92
2019-03-21T21:29:45.427Z,101828.48
2019-03-21T21:32:47.350Z,101827.21
2019-03-21T21:35:49.298Z,101827.00
2019-03-21T21:38:51.193Z,101830.08
2019-03-21T21:41:53.102Z,101822.44
2019-03-21T21:44:55.051Z,101822.14
2019-03-21T21:47:57.013Z,101829.60
2019-03-21T21:50:59.226Z,101822.04
2019-03-21T21:54:01.175Z,101811.20
2019-03-21T21:57:03.177Z,101820.33
2019-03-21T22:00:11.144Z,101821.16
2019-03-21T22:03:13.045Z,101816.31
2019-03-21T22:06:14.907Z,101823.05
2019-03-21T22:09:16.870Z,101819.27
2019-03-21T22:12:18.795Z,101822.00
2019-03-21T22:15:20.663Z,101825.25
2019-03-21T22:18:22.616Z,101824.73
2019-03-21T22:21:24.495Z,101826.51
2019-03-21T22:24:26.425Z,101826.39
2019-03-21T22:27:28.343Z,101828.67
2019-03-21T22:30:30.274Z,101822.75
2019-03-21T22:33:32.195Z,101817.71
2019-03-21T22:36:34.060Z,101818.73
2019-03-21T22:39:35.963Z,101819.48
2019-03-21T22:42:37.925Z,101812.02
2019-03-21T22:45:39.812Z,101812.08
2019-03-21T22:48:41.713Z,101824.77
2019-03-21T22:51:43.668Z,101823.45
2019-03-21T22:54:46.841Z,101820.61
2019-03-21T22:57:49.170Z,101821.97
2019-03-21T23:00:52.542Z,101816.69
2019-03-21T23:03:54.657Z,101816.23
2019-03-21T23:06:56.629Z,101814.39
2019-03-21T23:09:58.481Z,101813.50
2019-03-21T23:13:01.127Z,101815.10
2019-03-21T23:16:03.158Z,101817.80
2019-03-21T23:19:05.093Z,101809.91
2019-03-21T23:22:06.994Z,101811.02
2019-03-21T23:25:10.127Z,101801.61
2019-03-21T23:28:11.983Z,101804.44
2019-03-21T23:31:13.883Z,101815.45
2019-03-21T23:34:15.905Z,101814.98
2019-03-21T23:37:17.833Z,101825.29
2019-03-21T23:40:19.838Z,101824.73
2019-03-21T23:43:23.742Z,101823.02
2019-03-21T23:46:25.662Z,101826.22
2019-03-21T23:49:27.588Z,101822.44
2019-03-21T23:52:29.491Z,101824.11
2019-03-21T23:55:31.511Z,101829.95
2019-03-21T23:58:33.533Z,101824.39
